createdAt,value
2024-04-30T00:21:25.512Z,94.97
2024-04-30T00:43:57.863Z,96.96
2024-04-30T01:06:29.826Z,99.04
2024-04-30T01:29:01.853Z,100.00
2024-04-30T01:51:33.746Z,100.00
2024-04-30T02:14:05.684Z,100.00
2024-04-30T02:36:37.550Z,100.00
2024-04-30T02:59:09.522Z,100.00
2024-04-30T03:21:41.472Z,100.00
2024-04-30T03:44:13.351Z,100.00
2024-04-30T04:06:45.324Z,100.00
2024-04-30T04:29:17.293Z,100.00
2024-04-30T04:51:49.235Z,100.00
2024-04-30T05:14:21.672Z,100.00
2024-04-30T05:36:53.806Z,100.00
2024-04-30T05:59:25.705Z,98.01
2024-04-30T06:21:57.583Z,83.14
2024-04-30T06:44:29.985Z,81.53
2024-04-30T07:07:02.585Z,78.65
2024-04-30T07:29:34.646Z,76.68
2024-04-30T07:52:06.819Z,73.57
2024-04-30T08:14:38.719Z,56.45
2024-04-30T08:37:11.696Z,55.71
2024-04-30T08:59:43.734Z,62.36
2024-04-30T09:22:15.854Z,64.17
2024-04-30T09:44:51.249Z,68.47
2024-04-30T10:07:26.140Z,61.01
2024-04-30T10:29:58.023Z,60.40
2024-04-30T10:52:29.967Z,32.00
2024-04-30T11:15:06.347Z,34.64
2024-04-30T11:37:39.340Z,34.48
2024-04-30T12:00:11.967Z,29.48
2024-04-30T12:22:44.744Z,21.87
2024-04-30T12:45:17.516Z,23.17
2024-04-30T13:07:49.566Z,30.12
2024-04-30T13:30:21.547Z,31.71
2024-04-30T13:52:53.433Z,29.82
2024-04-30T14:15:25.370Z,29.39
2024-04-30T14:37:57.401Z,31.17
2024-04-30T15:00:29.253Z,30.77
2024-04-30T15:23:01.118Z,31.22
2024-04-30T15:45:33.266Z,32.82
2024-04-30T16:08:06.009Z,36.76
2024-04-30T16:30:37.887Z,45.66
2024-04-30T16:53:10.374Z,57.48
2024-04-30T17:15:42.449Z,49.49
2024-04-30T17:38:14.337Z,69.38
2024-04-30T18:00:46.326Z,65.99
2024-04-30T18:23:18.315Z,75.07
2024-04-30T18:45:50.278Z,82.45
2024-04-30T19:08:22.459Z,87.93
2024-04-30T19:30:54.851Z,95.47
2024-04-30T19:53:26.991Z,98.14
2024-04-30T20:16:00.241Z,100.00
2024-04-30T20:38:32.829Z,100.00
2024-04-30T21:01:05.021Z,100.00
2024-04-30T21:23:38.914Z,100.00
2024-04-30T21:46:11.730Z,100.00
2024-04-30T22:08:43.797Z,100.00
2024-04-30T22:31:15.692Z,100.00
2024-04-30T22:53:51.092Z,100.00
2024-04-30T23:16:27.331Z,100.00
2024-04-30T23:38:59.575Z,100.00
